Ashintilly, Georgia
Current Conditions -  °F | °C
As of 4:58 AM on Sunday 23 Nov 2014 (Local Time) from KLHW Reporting Station
Heavy Rain Heavy Rain  
Wind Chill: 16°   Ceiling: 500
Heat Index: 16°   Visibility: 4mi
Dew Point: 16°   Wind: 10mph
Humidity: 96%   Direction: 60°ENE
Pressure: 30.06"   Gusts: NA
Location:  31.5632°N, 81.4638°W
Report Text: KLHW 230958Z AUTO 06009KT 4SM R33/5000FT +RA BR OVC005 16/16 A3006 RMK AO2 SLP182 P0018 T01620155
Loading
Personal Weather Stations






























Interactive Weather Map New forecast layout! Learn more

10-Day Weather Forecast

Advertisements
Track Severe Weather on mobile